createdAt,value
2019-02-03T00:01:49.868Z,57.90
2019-02-03T00:04:21.767Z,56.53
2019-02-03T00:07:02.705Z,53.90
2019-02-03T00:09:22.381Z,56.07
2019-02-03T00:11:51.437Z,55.73
2019-02-03T00:14:20.443Z,56.03
2019-02-03T00:16:49.471Z,54.20
2019-02-03T00:19:18.520Z,55.00
2019-02-03T00:21:47.484Z,57.60
2019-02-03T00:24:16.494Z,54.20
2019-02-03T00:26:45.516Z,60.60
2019-02-03T00:29:14.612Z,58.47
2019-02-03T00:31:44.240Z,51.37
2019-02-03T00:34:13.263Z,60.30
2019-02-03T00:36:42.288Z,54.43
2019-02-03T00:39:11.369Z,58.97
2019-02-03T00:41:40.457Z,56.03
2019-02-03T00:44:09.519Z,55.80
2019-02-03T00:46:38.565Z,59.40
2019-02-03T00:49:07.598Z,53.03
2019-02-03T00:51:36.600Z,54.97
2019-02-03T00:54:06.392Z,47.73
2019-02-03T00:56:35.424Z,50.37
2019-02-03T00:59:14.192Z,49.67
2019-02-03T01:01:43.233Z,47.23
2019-02-03T01:04:12.270Z,46.30
2019-02-03T01:07:00.471Z,43.27
2019-02-03T01:09:29.487Z,49.57
2019-02-03T01:11:58.509Z,49.00
2019-02-03T01:14:27.491Z,49.63
2019-02-03T01:16:56.476Z,51.87
2019-02-03T01:19:25.511Z,51.07
2019-02-03T01:21:55.023Z,46.80
2019-02-03T01:24:24.162Z,52.00
2019-02-03T01:27:12.266Z,48.97
2019-02-03T01:29:41.133Z,54.43
2019-02-03T01:32:10.839Z,59.47
2019-02-03T01:34:39.809Z,53.27
2019-02-03T01:37:08.852Z,55.90
2019-02-03T01:39:37.868Z,55.40
2019-02-03T01:42:06.937Z,54.37
2019-02-03T01:44:35.942Z,50.73
2019-02-03T01:47:04.964Z,48.83
2019-02-03T01:49:33.984Z,56.37
2019-02-03T01:52:03.001Z,48.03
2019-02-03T01:54:32.044Z,49.10
2019-02-03T01:57:01.072Z,52.50
2019-02-03T01:59:30.676Z,54.07
2019-02-03T02:01:59.687Z,55.67
2019-02-03T02:04:28.740Z,56.10
2019-02-03T02:06:57.684Z,50.90
2019-02-03T02:09:32.145Z,47.40
2019-02-03T02:12:01.147Z,51.90
2019-02-03T02:14:30.149Z,50.80
2019-02-03T02:16:59.193Z,50.50
2019-02-03T02:19:31.384Z,48.30
2019-02-03T02:22:00.388Z,51.03
2019-02-03T02:24:29.400Z,51.93
2019-02-03T02:26:58.923Z,49.27
2019-02-03T02:29:47.067Z,44.37
2019-02-03T02:32:16.039Z,44.10
2019-02-03T02:34:45.078Z,51.63
2019-02-03T02:37:14.865Z,50.27
2019-02-03T02:39:43.797Z,49.23
2019-02-03T02:42:12.877Z,50.30
2019-02-03T02:44:41.932Z,46.83
2019-02-03T02:47:11.015Z,51.30
2019-02-03T02:49:42.937Z,45.53
2019-02-03T02:52:11.994Z,43.70
2019-02-03T02:54:40.956Z,47.23
2019-02-03T02:57:10.014Z,45.77
2019-02-03T02:59:39.000Z,44.10
2019-02-03T03:02:08.022Z,48.90
2019-02-03T03:04:46.078Z,43.70
2019-02-03T03:07:15.129Z,43.07
2019-02-03T03:09:44.097Z,45.43
2019-02-03T03:12:13.148Z,53.07
2019-02-03T03:14:42.180Z,41.70
2019-02-03T03:17:11.614Z,47.00
2019-02-03T03:19:40.577Z,51.20
2019-02-03T03:22:09.592Z,51.80
2019-02-03T03:24:38.469Z,55.90
2019-02-03T03:27:07.496Z,50.10
2019-02-03T03:29:55.622Z,44.83
2019-02-03T03:32:24.610Z,43.87
2019-02-03T03:34:53.710Z,47.03
2019-02-03T03:37:22.713Z,46.73
2019-02-03T03:39:51.747Z,43.63
2019-02-03T03:42:20.972Z,44.80
2019-02-03T03:44:50.001Z,42.37
2019-02-03T03:47:19.035Z,40.70
2019-02-03T03:49:48.053Z,41.70
2019-02-03T03:52:20.006Z,42.00
2019-02-03T03:54:49.318Z,39.60
2019-02-03T03:57:18.355Z,42.27
2019-02-03T03:59:47.436Z,45.67
2019-02-03T04:02:16.505Z,46.37
2019-02-03T04:04:45.501Z,43.30
2019-02-03T04:07:14.539Z,42.70
2019-02-03T04:09:46.750Z,43.50
2019-02-03T04:12:15.776Z,41.13
2019-02-03T04:14:44.677Z,49.13
2019-02-03T04:17:13.745Z,48.43
2019-02-03T04:19:42.841Z,44.80
2019-02-03T04:22:12.455Z,43.87
2019-02-03T04:24:41.434Z,43.23
2019-02-03T04:27:10.387Z,49.40
2019-02-03T04:29:39.433Z,47.77
2019-02-03T04:32:08.462Z,46.93
2019-02-03T04:34:37.492Z,46.50
2019-02-03T04:37:06.887Z,50.20
2019-02-03T04:39:35.912Z,47.70
2019-02-03T04:42:05.027Z,47.20
2019-02-03T04:44:34.089Z,51.07
2019-02-03T04:47:03.089Z,48.37
2019-02-03T04:49:32.098Z,48.77
2019-02-03T04:52:01.284Z,52.97
2019-02-03T04:54:49.442Z,48.53
2019-02-03T04:57:18.465Z,48.90
2019-02-03T04:59:47.510Z,52.33
2019-02-03T05:02:16.418Z,46.73
2019-02-03T05:04:45.424Z,48.13
2019-02-03T05:07:14.419Z,46.90
2019-02-03T05:09:43.437Z,46.07
2019-02-03T05:12:12.386Z,44.90
2019-02-03T05:14:41.289Z,44.07
2019-02-03T05:17:10.369Z,41.93
2019-02-03T05:19:39.266Z,48.20
2019-02-03T05:22:08.298Z,45.53
2019-02-03T05:24:37.357Z,39.40
2019-02-03T05:27:06.483Z,42.27
2019-02-03T05:29:54.891Z,44.47
2019-02-03T05:32:23.839Z,40.20
2019-02-03T05:34:52.701Z,37.00
2019-02-03T05:37:21.638Z,38.97
2019-02-03T05:39:51.070Z,39.43
2019-02-03T05:42:19.944Z,40.87
2019-02-03T05:44:48.924Z,35.17
2019-02-03T05:47:17.940Z,43.67
2019-02-03T05:49:46.851Z,40.10
2019-02-03T05:52:15.888Z,37.07
2019-02-03T05:54:45.411Z,37.10
2019-02-03T05:57:14.435Z,36.23
2019-02-03T05:59:43.440Z,36.77
2019-02-03T06:02:12.403Z,37.27
2019-02-03T06:04:41.446Z,39.93
2019-02-03T06:07:10.492Z,38.97
2019-02-03T06:09:39.484Z,34.60
2019-02-03T06:12:08.532Z,39.40
2019-02-03T06:14:37.547Z,35.23
2019-02-03T06:17:06.555Z,33.07
2019-02-03T06:19:35.497Z,36.53
2019-02-03T06:22:04.722Z,35.50
2019-02-03T06:24:33.700Z,30.00
2019-02-03T06:27:02.685Z,30.23
2019-02-03T06:29:31.762Z,36.23
2019-02-03T06:32:00.706Z,31.83
2019-02-03T06:34:29.728Z,32.47
2019-02-03T06:36:59.151Z,31.83
2019-02-03T06:39:28.177Z,30.83
2019-02-03T06:42:16.296Z,30.50
2019-02-03T06:44:45.315Z,31.63
2019-02-03T06:47:33.008Z,35.13
2019-02-03T06:50:01.903Z,33.00
2019-02-03T06:52:30.919Z,28.40
2019-02-03T06:54:59.910Z,24.20
2019-02-03T06:57:29.315Z,27.77
2019-02-03T06:59:58.245Z,32.40
2019-02-03T07:02:27.310Z,29.97
2019-02-03T07:04:56.205Z,28.77
2019-02-03T07:07:44.485Z,26.07
2019-02-03T07:10:13.783Z,29.10
2019-02-03T07:12:42.742Z,26.30
2019-02-03T07:15:12.100Z,27.47
2019-02-03T07:17:41.058Z,27.87
2019-02-03T07:20:10.456Z,28.17
2019-02-03T07:22:39.745Z,25.40
2019-02-03T07:25:27.870Z,31.93
2019-02-03T07:27:56.737Z,26.97
2019-02-03T07:30:25.832Z,27.00
2019-02-03T07:32:55.456Z,25.53
2019-02-03T07:35:24.436Z,24.77
2019-02-03T07:37:53.437Z,27.43
2019-02-03T07:40:22.556Z,29.73
2019-02-03T07:42:51.602Z,25.47
2019-02-03T07:45:20.622Z,23.30
2019-02-03T07:47:49.500Z,27.60
2019-02-03T07:50:18.511Z,27.03
2019-02-03T07:52:47.540Z,25.20
2019-02-03T07:55:16.857Z,25.10
2019-02-03T07:57:45.932Z,24.53
2019-02-03T08:00:34.033Z,27.33
2019-02-03T08:03:03.047Z,30.63
2019-02-03T08:05:32.056Z,23.80
2019-02-03T08:08:01.087Z,26.30
2019-02-03T08:10:30.096Z,26.30
2019-02-03T08:12:59.431Z,28.10
2019-02-03T08:15:28.436Z,24.33
2019-02-03T08:17:57.424Z,25.37
2019-02-03T08:20:26.720Z,23.53
2019-02-03T08:22:55.724Z,24.53
2019-02-03T08:25:24.782Z,25.87
2019-02-03T08:27:53.751Z,24.63
2019-02-03T08:30:23.311Z,23.10
2019-02-03T08:32:52.338Z,22.23
2019-02-03T08:35:21.366Z,24.63
2019-02-03T08:37:50.380Z,27.90
2019-02-03T08:40:21.440Z,22.40
2019-02-03T08:42:50.772Z,25.73
2019-02-03T08:45:20.343Z,22.20
2019-02-03T08:47:49.638Z,26.27
2019-02-03T08:50:19.765Z,24.40
2019-02-03T08:52:51.309Z,19.17
2019-02-03T08:55:20.077Z,23.03
2019-02-03T08:57:49.094Z,17.63
2019-02-03T09:00:20.278Z,19.00
2019-02-03T09:02:50.029Z,21.43
2019-02-03T09:05:19.383Z,17.93
2019-02-03T09:07:48.961Z,19.20
2019-02-03T09:10:19.828Z,17.03
2019-02-03T09:12:48.889Z,18.70
2019-02-03T09:15:20.634Z,20.70
2019-02-03T09:17:49.711Z,17.57
2019-02-03T09:20:27.351Z,21.27
2019-02-03T09:22:56.392Z,19.17
2019-02-03T09:25:25.484Z,18.40
2019-02-03T09:27:54.500Z,16.00
2019-02-03T09:30:28.669Z,16.53
2019-02-03T09:32:57.978Z,18.50
2019-02-03T09:35:27.321Z,16.67
2019-02-03T09:37:56.319Z,19.50
2019-02-03T09:40:27.287Z,16.00
2019-02-03T09:42:56.296Z,19.47
2019-02-03T09:45:26.019Z,19.40
2019-02-03T09:47:55.324Z,18.47
2019-02-03T09:50:26.136Z,16.60
2019-02-03T09:52:57.349Z,22.43
2019-02-03T09:55:26.374Z,20.60
2019-02-03T09:57:56.041Z,18.00
2019-02-03T10:00:27.641Z,22.17
2019-02-03T10:02:58.073Z,20.40
2019-02-03T10:05:27.078Z,18.10
2019-02-03T10:07:56.519Z,18.27
2019-02-03T10:10:27.836Z,19.50
2019-02-03T10:12:57.322Z,20.50
2019-02-03T10:15:26.545Z,20.47
2019-02-03T10:17:55.544Z,24.30
2019-02-03T10:20:25.120Z,18.00
2019-02-03T10:22:54.136Z,17.20
2019-02-03T10:25:24.548Z,20.10
2019-02-03T10:27:53.989Z,15.70
2019-02-03T10:30:24.141Z,15.70
2019-02-03T10:32:53.555Z,22.13
2019-02-03T10:35:24.204Z,21.70
2019-02-03T10:37:53.324Z,16.27
2019-02-03T10:40:24.655Z,20.80
2019-02-03T10:42:54.668Z,18.10
2019-02-03T10:45:24.596Z,23.60
2019-02-03T10:47:54.069Z,22.00
2019-02-03T10:50:26.906Z,19.50
2019-02-03T10:52:56.012Z,23.97
2019-02-03T10:55:25.716Z,18.80
2019-02-03T10:57:55.047Z,21.77
2019-02-03T11:00:26.477Z,17.43
2019-02-03T11:02:55.516Z,19.83
2019-02-03T11:05:27.476Z,19.47
2019-02-03T11:07:57.067Z,17.40
2019-02-03T11:10:26.719Z,19.37
2019-02-03T11:12:56.151Z,17.83
2019-02-03T11:15:25.980Z,17.87
2019-02-03T11:17:54.987Z,19.10
2019-02-03T11:20:26.440Z,17.77
2019-02-03T11:22:56.169Z,19.63
2019-02-03T11:25:26.325Z,19.97
2019-02-03T11:27:55.584Z,22.97
2019-02-03T11:30:26.117Z,17.80
2019-02-03T11:33:05.114Z,18.83
2019-02-03T11:35:26.967Z,21.03
2019-02-03T11:37:56.284Z,21.40
2019-02-03T11:40:27.437Z,21.20
2019-02-03T11:42:56.829Z,20.33
2019-02-03T11:45:32.307Z,20.73
2019-02-03T11:48:01.319Z,24.67
2019-02-03T11:50:35.664Z,20.17
2019-02-03T11:53:06.133Z,20.17
2019-02-03T11:55:35.158Z,18.77
2019-02-03T11:58:04.693Z,23.47
2019-02-03T12:00:34.300Z,25.80
2019-02-03T12:03:04.535Z,26.63
2019-02-03T12:05:33.548Z,26.90
2019-02-03T12:08:02.485Z,25.43
2019-02-03T12:10:32.123Z,28.00
2019-02-03T12:13:01.741Z,25.50
2019-02-03T12:15:30.757Z,30.67
2019-02-03T12:17:59.788Z,25.10
2019-02-03T12:20:28.804Z,28.70
2019-02-03T12:22:57.827Z,33.53
2019-02-03T12:25:28.848Z,33.80
2019-02-03T12:27:58.180Z,36.63
2019-02-03T12:30:29.924Z,31.90
2019-02-03T12:32:59.424Z,31.23
2019-02-03T12:35:28.512Z,28.77
2019-02-03T12:37:58.190Z,32.23
2019-02-03T12:40:29.532Z,27.67
2019-02-03T12:42:58.556Z,34.53
2019-02-03T12:45:28.205Z,37.53
2019-02-03T12:47:57.228Z,34.03
2019-02-03T12:50:26.424Z,41.07
2019-02-03T12:52:55.740Z,38.17
2019-02-03T12:55:27.535Z,31.97
2019-02-03T12:57:56.556Z,35.97
2019-02-03T13:00:28.028Z,42.30
2019-02-03T13:02:57.021Z,31.83
2019-02-03T13:05:26.900Z,32.93
2019-02-03T13:07:56.568Z,36.23
2019-02-03T13:10:30.939Z,32.37
2019-02-03T13:13:00.959Z,30.03
2019-02-03T13:15:32.850Z,38.40
2019-02-03T13:18:01.880Z,36.63
2019-02-03T13:20:31.271Z,38.00
2019-02-03T13:23:00.604Z,39.50
2019-02-03T13:25:29.620Z,42.17
2019-02-03T13:27:58.628Z,39.17
2019-02-03T13:30:32.707Z,40.70
2019-02-03T13:33:01.781Z,38.53
2019-02-03T13:35:30.829Z,47.17
2019-02-03T13:37:59.884Z,49.60
2019-02-03T13:40:36.081Z,45.97
2019-02-03T13:43:06.081Z,43.63
2019-02-03T13:45:35.726Z,43.30
2019-02-03T13:48:06.088Z,44.13
2019-02-03T13:50:35.134Z,49.83
2019-02-03T13:53:04.460Z,45.30
2019-02-03T13:55:33.456Z,43.37
2019-02-03T13:58:02.527Z,54.57
2019-02-03T14:00:33.714Z,46.87
2019-02-03T14:03:02.725Z,48.47
2019-02-03T14:05:31.769Z,44.13
2019-02-03T14:08:01.202Z,46.73
2019-02-03T14:10:31.804Z,49.20
2019-02-03T14:13:01.377Z,45.07
2019-02-03T14:15:30.820Z,41.37
2019-02-03T14:18:00.075Z,42.27
2019-02-03T14:20:30.196Z,46.77
2019-02-03T14:22:59.480Z,45.47
2019-02-03T14:25:29.091Z,48.80
2019-02-03T14:27:58.292Z,40.50
2019-02-03T14:30:41.711Z,44.50
2019-02-03T14:33:11.223Z,47.13
2019-02-03T14:35:47.128Z,42.97
2019-02-03T14:38:16.145Z,43.67
2019-02-03T14:40:45.159Z,45.50
2019-02-03T14:43:14.079Z,47.67
2019-02-03T14:45:43.354Z,45.47
2019-02-03T14:48:12.353Z,50.60
2019-02-03T14:50:41.367Z,42.40
2019-02-03T14:53:15.179Z,47.50
2019-02-03T14:55:53.268Z,43.13
2019-02-03T14:58:24.306Z,41.57
2019-02-03T15:00:54.022Z,46.37
2019-02-03T15:03:24.444Z,40.60
2019-02-03T15:05:53.881Z,42.30
2019-02-03T15:08:22.959Z,50.07
2019-02-03T15:10:51.977Z,44.90
2019-02-03T15:13:21.014Z,46.40
2019-02-03T15:15:50.016Z,43.40
2019-02-03T15:18:19.042Z,46.03
2019-02-03T15:20:48.056Z,42.60
2019-02-03T15:23:17.076Z,42.43
2019-02-03T15:25:46.080Z,44.80
2019-02-03T15:28:16.420Z,45.93
2019-02-03T15:30:46.724Z,48.47
2019-02-03T15:33:15.715Z,37.00
2019-02-03T15:35:44.849Z,44.70
2019-02-03T15:38:13.880Z,45.47
2019-02-03T15:40:43.479Z,43.90
2019-02-03T15:43:24.481Z,40.47
2019-02-03T15:45:43.411Z,45.10
2019-02-03T15:48:12.425Z,43.77
2019-02-03T15:50:41.428Z,38.37
2019-02-03T15:53:10.516Z,40.20
2019-02-03T15:55:39.513Z,40.83
2019-02-03T15:58:10.092Z,31.83
2019-02-03T16:00:41.439Z,28.57
2019-02-03T16:03:11.611Z,38.50
2019-02-03T16:05:40.713Z,33.17
2019-02-03T16:08:29.284Z,39.83
2019-02-03T16:10:58.284Z,38.17
2019-02-03T16:13:36.755Z,33.07
2019-02-03T16:15:57.964Z,32.83
2019-02-03T16:18:27.268Z,32.67
2019-02-03T16:20:56.300Z,38.53
2019-02-03T16:23:25.324Z,35.60
2019-02-03T16:25:54.285Z,35.03
2019-02-03T16:28:23.198Z,36.93
2019-02-03T16:30:52.211Z,39.07
2019-02-03T16:33:21.207Z,35.83
2019-02-03T16:35:50.224Z,44.40
2019-02-03T16:38:22.927Z,34.60
2019-02-03T16:40:49.935Z,37.00
2019-02-03T16:43:19.428Z,37.90
2019-02-03T16:45:48.447Z,32.60
2019-02-03T16:48:17.455Z,29.80
2019-02-03T16:50:46.523Z,26.90
2019-02-03T16:53:15.505Z,27.60
2019-02-03T16:55:44.579Z,28.23
2019-02-03T16:58:13.903Z,30.67
2019-02-03T17:00:42.929Z,27.30
2019-02-03T17:03:11.920Z,27.00
2019-02-03T17:05:40.885Z,29.83
2019-02-03T17:08:09.956Z,27.87
2019-02-03T17:10:39.004Z,26.80
2019-02-03T17:13:08.096Z,32.63
2019-02-03T17:15:43.004Z,30.50
2019-02-03T17:18:12.563Z,34.20
2019-02-03T17:20:41.565Z,30.03
2019-02-03T17:23:10.614Z,33.57
2019-02-03T17:25:42.216Z,35.30
2019-02-03T17:28:11.276Z,35.60
2019-02-03T17:30:40.273Z,34.00
2019-02-03T17:33:09.603Z,35.53
2019-02-03T17:35:38.606Z,36.90
2019-02-03T17:38:07.610Z,36.13
2019-02-03T17:40:36.636Z,29.82
2019-02-03T17:43:25.404Z,34.27
2019-02-03T17:45:54.500Z,30.73
2019-02-03T17:48:23.512Z,31.43
2019-02-03T17:50:52.539Z,35.25
2019-02-03T17:53:21.540Z,30.30
2019-02-03T17:55:50.530Z,34.67
2019-02-03T17:58:19.549Z,33.13
2019-02-03T18:00:52.364Z,29.20
2019-02-03T18:03:21.390Z,39.33
2019-02-03T18:05:50.371Z,33.50
2019-02-03T18:08:19.961Z,31.43
2019-02-03T18:10:48.886Z,30.17
2019-02-03T18:13:17.886Z,33.47
2019-02-03T18:15:46.903Z,29.30
2019-02-03T18:18:15.908Z,31.93
2019-02-03T18:20:44.880Z,31.87
2019-02-03T18:23:13.804Z,28.80
2019-02-03T18:25:42.830Z,30.57
2019-02-03T18:28:30.899Z,28.57
2019-02-03T18:30:59.896Z,29.90
2019-02-03T18:33:28.906Z,31.60
2019-02-03T18:35:57.915Z,31.97
2019-02-03T18:38:26.856Z,27.97
2019-02-03T18:40:55.881Z,37.93
2019-02-03T18:43:24.887Z,31.30
2019-02-03T18:45:56.679Z,38.67
2019-02-03T18:48:26.665Z,31.63
2019-02-03T18:50:55.698Z,31.43
2019-02-03T18:53:24.638Z,29.90
2019-02-03T18:55:53.648Z,28.97
2019-02-03T18:58:22.674Z,38.33
2019-02-03T19:00:52.195Z,36.80
2019-02-03T19:03:21.268Z,29.57
2019-02-03T19:05:50.284Z,32.67
2019-02-03T19:08:19.215Z,29.20
2019-02-03T19:10:48.428Z,34.83
2019-02-03T19:13:18.789Z,35.30
2019-02-03T19:15:47.821Z,34.40
2019-02-03T19:18:16.817Z,29.80
2019-02-03T19:20:45.823Z,39.80
2019-02-03T19:23:14.874Z,35.60
2019-02-03T19:25:44.367Z,31.60
2019-02-03T19:28:13.557Z,33.30
2019-02-03T19:30:42.552Z,33.33
2019-02-03T19:33:11.545Z,34.10
2019-02-03T19:35:43.267Z,33.40
2019-02-03T19:38:12.308Z,30.40
2019-02-03T19:40:41.332Z,39.07
2019-02-03T19:43:10.773Z,33.10
2019-02-03T19:45:39.804Z,32.17
2019-02-03T19:48:08.902Z,32.57
2019-02-03T19:50:38.838Z,33.67
2019-02-03T19:53:08.828Z,28.83
2019-02-03T19:55:38.124Z,29.37
2019-02-03T19:58:07.782Z,30.50
2019-02-03T20:00:38.913Z,32.50
2019-02-03T20:03:08.492Z,31.27
2019-02-03T20:05:37.449Z,35.30
2019-02-03T20:08:07.130Z,35.20
2019-02-03T20:10:37.213Z,38.20
2019-02-03T20:13:07.043Z,31.43
2019-02-03T20:15:36.096Z,32.93
2019-02-03T20:18:05.863Z,34.13
2019-02-03T20:20:35.657Z,32.80
2019-02-03T20:23:06.713Z,35.43
2019-02-03T20:25:35.683Z,36.27
2019-02-03T20:28:05.795Z,27.67
2019-02-03T20:30:38.553Z,38.27
2019-02-03T20:33:06.135Z,37.13
2019-02-03T20:35:35.132Z,29.60
2019-02-03T20:38:04.932Z,31.03
2019-02-03T20:40:35.845Z,38.37
2019-02-03T20:43:05.351Z,33.53
2019-02-03T20:45:36.174Z,29.20
2019-02-03T20:48:05.138Z,36.67
2019-02-03T20:50:34.132Z,30.73
2019-02-03T20:53:03.080Z,32.77
2019-02-03T20:55:32.199Z,30.03
2019-02-03T20:58:07.034Z,35.67
2019-02-03T21:00:36.939Z,31.57
2019-02-03T21:03:06.809Z,35.00
2019-02-03T21:05:55.285Z,32.73
2019-02-03T21:08:24.295Z,43.13
2019-02-03T21:10:53.243Z,37.40
2019-02-03T21:13:22.181Z,33.13
2019-02-03T21:15:51.580Z,37.97
2019-02-03T21:18:20.561Z,28.63
2019-02-03T21:20:56.308Z,34.43
2019-02-03T21:23:25.327Z,34.23
2019-02-03T21:25:54.336Z,37.57
2019-02-03T21:28:23.294Z,32.80
2019-02-03T21:30:52.301Z,33.97
2019-02-03T21:33:21.288Z,36.50
2019-02-03T21:35:50.297Z,34.40
2019-02-03T21:38:19.303Z,31.17
2019-02-03T21:40:48.336Z,36.17
2019-02-03T21:43:17.857Z,40.80
2019-02-03T21:45:46.862Z,29.63
2019-02-03T21:48:15.884Z,37.90
2019-02-03T21:50:44.881Z,34.87
2019-02-03T21:53:13.924Z,39.33
2019-02-03T21:55:42.979Z,34.63
2019-02-03T21:58:12.452Z,41.70
2019-02-03T22:00:41.412Z,33.90
2019-02-03T22:03:29.551Z,32.50
2019-02-03T22:05:58.568Z,35.83
2019-02-03T22:08:28.077Z,35.00
2019-02-03T22:10:56.978Z,37.57
2019-02-03T22:13:45.111Z,35.97
2019-02-03T22:16:14.456Z,30.30
2019-02-03T22:18:43.959Z,36.63
2019-02-03T22:21:16.004Z,37.30
2019-02-03T22:23:45.016Z,37.80
2019-02-03T22:26:14.015Z,37.70
2019-02-03T22:28:42.940Z,40.27
2019-02-03T22:31:11.960Z,34.67
2019-02-03T22:33:40.974Z,35.47
2019-02-03T22:36:09.992Z,33.57
2019-02-03T22:38:58.027Z,33.13
2019-02-03T22:41:27.047Z,30.93
2019-02-03T22:43:56.080Z,30.83
2019-02-03T22:46:25.076Z,33.53
2019-02-03T22:48:53.929Z,33.20
2019-02-03T22:51:22.907Z,38.80
2019-02-03T22:53:51.889Z,33.53
2019-02-03T22:56:21.174Z,34.10
2019-02-03T22:58:50.192Z,30.30
2019-02-03T23:01:28.588Z,36.67
2019-02-03T23:04:07.135Z,35.00
2019-02-03T23:06:37.842Z,36.23
2019-02-03T23:09:21.373Z,37.80
2019-02-03T23:11:50.368Z,36.40
2019-02-03T23:14:19.407Z,30.70
2019-02-03T23:16:48.440Z,36.60
2019-02-03T23:19:17.617Z,33.23
2019-02-03T23:21:46.637Z,34.17
2019-02-03T23:24:15.632Z,34.03
2019-02-03T23:26:44.661Z,32.90
2019-02-03T23:29:13.668Z,34.00
2019-02-03T23:31:42.696Z,31.87
2019-02-03T23:34:11.732Z,35.97
2019-02-03T23:36:40.840Z,38.63
2019-02-03T23:39:13.407Z,33.83
2019-02-03T23:41:43.028Z,36.70
2019-02-03T23:44:31.174Z,34.10
2019-02-03T23:47:00.188Z,35.90
2019-02-03T23:49:29.200Z,36.80
2019-02-03T23:51:58.132Z,35.77
2019-02-03T23:54:27.132Z,39.60
2019-02-03T23:56:56.175Z,34.30
2019-02-03T23:59:25.172Z,37.60
